sensor_id;sensor_type;location;lat;lon;timestamp;pressure;altitude;pressure_sealevel;temperature;humidity
19259;BME280;9763;48.780;9.212;2022-07-29T00:00:16;98159.34;;;26.07;nan
19259;BME280;9763;48.780;9.212;2022-07-29T00:03:39;98163.03;;;26.12;nan
19259;BME280;9763;48.780;9.212;2022-07-29T00:07:05;98143.28;;;26.13;nan
19259;BME280;9763;48.780;9.212;2022-07-29T00:10:28;98146.38;;;26.17;nan
19259;BME280;9763;48.780;9.212;2022-07-29T00:13:52;98140.00;;;26.18;nan
19259;BME280;9763;48.780;9.212;2022-07-29T00:17:15;98135.28;;;26.20;nan
19259;BME280;9763;48.780;9.212;2022-07-29T00:20:40;98137.72;;;26.22;nan
19259;BME280;9763;48.780;9.212;2022-07-29T00:24:06;98136.91;;;26.21;nan
19259;BME280;9763;48.780;9.212;2022-07-29T00:27:29;98131.97;;;26.18;nan
19259;BME280;9763;48.780;9.212;2022-07-29T00:30:53;98133.00;;;26.10;nan
19259;BME280;9763;48.780;9.212;2022-07-29T00:34:17;98129.31;;;26.05;nan
19259;BME280;9763;48.780;9.212;2022-07-29T00:37:57;98132.97;;;25.97;nan
19259;BME280;9763;48.780;9.212;2022-07-29T00:41:24;98140.81;;;25.92;nan
19259;BME280;9763;48.780;9.212;2022-07-29T00:44:48;98132.56;;;25.87;nan
19259;BME280;9763;48.780;9.212;2022-07-29T00:48:11;98124.97;;;25.84;nan
19259;BME280;9763;48.780;9.212;2022-07-29T00:51:36;98128.25;;;25.79;nan
19259;BME280;9763;48.780;9.212;2022-07-29T00:55:00;98129.66;;;25.75;nan
19259;BME280;9763;48.780;9.212;2022-07-29T00:58:31;98130.28;;;25.71;nan
19259;BME280;9763;48.780;9.212;2022-07-29T01:01:55;98126.78;;;25.70;nan
19259;BME280;9763;48.780;9.212;2022-07-29T01:05:22;98118.78;;;25.70;nan
19259;BME280;9763;48.780;9.212;2022-07-29T01:09:07;98114.00;;;25.72;nan
19259;BME280;9763;48.780;9.212;2022-07-29T01:12:35;98102.28;;;25.73;nan
19259;BME280;9763;48.780;9.212;2022-07-29T01:16:10;98099.03;;;25.71;nan
19259;BME280;9763;48.780;9.212;2022-07-29T01:19:49;98101.06;;;25.69;nan
19259;BME280;9763;48.780;9.212;2022-07-29T01:23:52;98104.97;;;25.67;nan
19259;BME280;9763;48.780;9.212;2022-07-29T01:27:43;98105.38;;;25.64;nan
19259;BME280;9763;48.780;9.212;2022-07-29T01:31:16;98105.97;;;25.59;nan
19259;BME280;9763;48.780;9.212;2022-07-29T01:34:52;98101.00;;;25.56;nan
19259;BME280;9763;48.780;9.212;2022-07-29T01:38:22;98104.28;;;25.52;nan
19259;BME280;9763;48.780;9.212;2022-07-29T01:41:55;98107.78;;;25.45;nan
19259;BME280;9763;48.780;9.212;2022-07-29T01:45:26;98106.28;;;25.36;nan
19259;BME280;9763;48.780;9.212;2022-07-29T01:48:59;98101.13;;;25.28;nan
19259;BME280;9763;48.780;9.212;2022-07-29T01:52:31;98098.84;;;25.25;nan
19259;BME280;9763;48.780;9.212;2022-07-29T01:56:00;98099.47;;;25.21;nan
19259;BME280;9763;48.780;9.212;2022-07-29T01:59:26;98109.94;;;25.16;nan
19259;BME280;9763;48.780;9.212;2022-07-29T02:02:52;98100.47;;;25.13;nan
19259;BME280;9763;48.780;9.212;2022-07-29T02:06:21;98095.53;;;25.10;nan
19259;BME280;9763;48.780;9.212;2022-07-29T02:09:47;98104.13;;;25.05;nan
19259;BME280;9763;48.780;9.212;2022-07-29T02:13:15;98096.09;;;24.99;nan
19259;BME280;9763;48.780;9.212;2022-07-29T02:16:41;98090.53;;;24.94;nan
19259;BME280;9763;48.780;9.212;2022-07-29T02:20:09;98086.38;;;24.91;nan
19259;BME280;9763;48.780;9.212;2022-07-29T02:23:37;98089.03;;;24.85;nan
19259;BME280;9763;48.780;9.212;2022-07-29T02:27:14;98081.59;;;24.80;nan
19259;BME280;9763;48.780;9.212;2022-07-29T02:30:41;98080.75;;;24.73;nan
19259;BME280;9763;48.780;9.212;2022-07-29T02:34:09;98074.72;;;24.64;nan
19259;BME280;9763;48.780;9.212;2022-07-29T02:37:36;98083.53;;;24.58;nan
19259;BME280;9763;48.780;9.212;2022-07-29T02:41:07;98083.09;;;24.55;nan
19259;BME280;9763;48.780;9.212;2022-07-29T02:44:34;98084.13;;;24.54;nan
19259;BME280;9763;48.780;9.212;2022-07-29T02:48:05;98079.22;;;24.57;nan
19259;BME280;9763;48.780;9.212;2022-07-29T02:51:40;98078.00;;;24.60;nan
19259;BME280;9763;48.780;9.212;2022-07-29T02:55:14;98089.50;;;24.60;nan
19259;BME280;9763;48.780;9.212;2022-07-29T02:58:45;98097.31;;;24.62;nan
19259;BME280;9763;48.780;9.212;2022-07-29T03:02:11;98096.69;;;24.60;nan
19259;BME280;9763;48.780;9.212;2022-07-29T03:05:38;98109.03;;;24.61;nan
19259;BME280;9763;48.780;9.212;2022-07-29T03:09:06;98093.81;;;24.61;nan
19259;BME280;9763;48.780;9.212;2022-07-29T03:12:35;98102.03;;;24.60;nan
19259;BME280;9763;48.780;9.212;2022-07-29T03:16:01;98108.19;;;24.60;nan
19259;BME280;9763;48.780;9.212;2022-07-29T03:19:26;98105.72;;;24.59;nan
19259;BME280;9763;48.780;9.212;2022-07-29T03:22:50;98099.09;;;24.55;nan
19259;BME280;9763;48.780;9.212;2022-07-29T03:26:14;98105.66;;;24.52;nan
19259;BME280;9763;48.780;9.212;2022-07-29T03:29:38;98098.88;;;24.50;nan
19259;BME280;9763;48.780;9.212;2022-07-29T03:33:06;98093.94;;;24.47;nan
19259;BME280;9763;48.780;9.212;2022-07-29T03:36:35;98101.31;;;24.45;nan
19259;BME280;9763;48.780;9.212;2022-07-29T03:40:00;98104.34;;;24.41;nan
19259;BME280;9763;48.780;9.212;2022-07-29T03:43:29;98095.94;;;24.38;nan
19259;BME280;9763;48.780;9.212;2022-07-29T03:46:57;98108.84;;;24.34;nan
19259;BME280;9763;48.780;9.212;2022-07-29T03:50:23;98110.03;;;24.32;nan
19259;BME280;9763;48.780;9.212;2022-07-29T03:53:47;98113.72;;;24.31;nan
19259;BME280;9763;48.780;9.212;2022-07-29T03:57:12;98118.22;;;24.30;nan
19259;BME280;9763;48.780;9.212;2022-07-29T04:00:38;98117.41;;;24.30;nan
19259;BME280;9763;48.780;9.212;2022-07-29T04:04:02;98112.25;;;24.28;nan
19259;BME280;9763;48.780;9.212;2022-07-29T04:07:28;98114.31;;;24.26;nan
19259;BME280;9763;48.780;9.212;2022-07-29T04:10:51;98115.94;;;24.27;nan
19259;BME280;9763;48.780;9.212;2022-07-29T04:14:15;98113.72;;;24.31;nan
19259;BME280;9763;48.780;9.212;2022-07-29T04:17:39;98112.72;;;24.32;nan
19259;BME280;9763;48.780;9.212;2022-07-29T04:21:03;98112.13;;;24.36;nan
19259;BME280;9763;48.780;9.212;2022-07-29T04:24:28;98122.66;;;24.45;nan
19259;BME280;9763;48.780;9.212;2022-07-29T04:27:52;98120.25;;;24.50;nan
19259;BME280;9763;48.780;9.212;2022-07-29T04:31:24;98116.19;;;24.60;nan
19259;BME280;9763;48.780;9.212;2022-07-29T04:34:48;98124.50;;;24.78;nan
19259;BME280;9763;48.780;9.212;2022-07-29T04:38:12;98118.06;;;24.94;nan
19259;BME280;9763;48.780;9.212;2022-07-29T04:41:39;98121.81;;;25.13;nan
19259;BME280;9763;48.780;9.212;2022-07-29T04:45:05;98119.44;;;25.31;nan
19259;BME280;9763;48.780;9.212;2022-07-29T04:48:29;98112.13;;;25.60;nan
19259;BME280;9763;48.780;9.212;2022-07-29T04:51:53;98108.06;;;25.97;nan
19259;BME280;9763;48.780;9.212;2022-07-29T04:55:17;98114.09;;;26.38;nan
19259;BME280;9763;48.780;9.212;2022-07-29T04:58:42;98117.72;;;26.77;nan
19259;BME280;9763;48.780;9.212;2022-07-29T05:02:05;98119.25;;;27.24;nan
19259;BME280;9763;48.780;9.212;2022-07-29T05:05:29;98122.13;;;27.74;nan
19259;BME280;9763;48.780;9.212;2022-07-29T05:08:53;98108.41;;;28.13;nan
19259;BME280;9763;48.780;9.212;2022-07-29T05:12:16;98117.63;;;28.49;nan
19259;BME280;9763;48.780;9.212;2022-07-29T05:15:41;98116.25;;;29.01;nan
19259;BME280;9763;48.780;9.212;2022-07-29T05:19:05;98121.47;;;29.51;nan
19259;BME280;9763;48.780;9.212;2022-07-29T05:22:35;98115.19;;;29.98;nan
19259;BME280;9763;48.780;9.212;2022-07-29T05:25:59;98115.59;;;30.37;nan
19259;BME280;9763;48.780;9.212;2022-07-29T05:29:22;98115.97;;;30.52;nan
19259;BME280;9763;48.780;9.212;2022-07-29T05:33:06;98109.88;;;30.68;nan
19259;BME280;9763;48.780;9.212;2022-07-29T05:36:49;98108.34;;;30.84;nan
19259;BME280;9763;48.780;9.212;2022-07-29T05:40:13;98112.28;;;31.17;nan
19259;BME280;9763;48.780;9.212;2022-07-29T05:43:36;98111.06;;;31.64;nan
19259;BME280;9763;48.780;9.212;2022-07-29T05:47:00;98114.75;;;32.03;nan
19259;BME280;9763;48.780;9.212;2022-07-29T05:50:25;98116.84;;;32.46;nan
19259;BME280;9763;48.780;9.212;2022-07-29T05:53:48;98121.19;;;32.86;nan
19259;BME280;9763;48.780;9.212;2022-07-29T05:57:15;98120.03;;;33.20;nan
19259;BME280;9763;48.780;9.212;2022-07-29T06:00:40;98126.84;;;33.45;nan
19259;BME280;9763;48.780;9.212;2022-07-29T06:04:04;98124.78;;;33.79;nan
19259;BME280;9763;48.780;9.212;2022-07-29T06:07:29;98123.81;;;34.22;nan
19259;BME280;9763;48.780;9.212;2022-07-29T06:10:55;98131.47;;;34.67;nan
19259;BME280;9763;48.780;9.212;2022-07-29T06:14:19;98132.06;;;35.21;nan
19259;BME280;9763;48.780;9.212;2022-07-29T06:17:42;98122.72;;;35.59;nan
19259;BME280;9763;48.780;9.212;2022-07-29T06:21:23;98128.00;;;36.06;nan
19259;BME280;9763;48.780;9.212;2022-07-29T06:24:47;98132.09;;;36.70;nan
19259;BME280;9763;48.780;9.212;2022-07-29T06:28:11;98140.06;;;37.36;nan
19259;BME280;9763;48.780;9.212;2022-07-29T06:31:35;98131.91;;;37.85;nan
19259;BME280;9763;48.780;9.212;2022-07-29T06:34:59;98121.28;;;38.23;nan
19259;BME280;9763;48.780;9.212;2022-07-29T06:38:43;98133.84;;;38.81;nan
19259;BME280;9763;48.780;9.212;2022-07-29T06:42:14;98132.00;;;39.48;nan
19259;BME280;9763;48.780;9.212;2022-07-29T06:45:37;98140.75;;;40.07;nan
19259;BME280;9763;48.780;9.212;2022-07-29T06:49:03;98132.41;;;40.63;nan
19259;BME280;9763;48.780;9.212;2022-07-29T06:52:27;98127.28;;;40.89;nan
19259;BME280;9763;48.780;9.212;2022-07-29T06:55:51;98133.28;;;40.45;nan
19259;BME280;9763;48.780;9.212;2022-07-29T06:59:16;98136.31;;;39.92;nan
19259;BME280;9763;48.780;9.212;2022-07-29T07:02:40;98139.25;;;39.58;nan
19259;BME280;9763;48.780;9.212;2022-07-29T07:06:03;98140.63;;;39.74;nan
19259;BME280;9763;48.780;9.212;2022-07-29T07:09:27;98144.88;;;39.85;nan
19259;BME280;9763;48.780;9.212;2022-07-29T07:13:01;98141.72;;;39.97;nan
19259;BME280;9763;48.780;9.212;2022-07-29T07:16:26;98148.75;;;40.36;nan
19259;BME280;9763;48.780;9.212;2022-07-29T07:19:50;98142.16;;;40.37;nan
19259;BME280;9763;48.780;9.212;2022-07-29T07:23:13;98150.16;;;40.65;nan
19259;BME280;9763;48.780;9.212;2022-07-29T07:26:37;98145.28;;;40.62;nan
19259;BME280;9763;48.780;9.212;2022-07-29T07:30:02;98146.25;;;40.85;nan
19259;BME280;9763;48.780;9.212;2022-07-29T07:33:29;98147.38;;;40.52;nan
19259;BME280;9763;48.780;9.212;2022-07-29T07:36:52;98156.59;;;39.67;nan
19259;BME280;9763;48.780;9.212;2022-07-29T07:40:16;98153.91;;;39.19;nan
19259;BME280;9763;48.780;9.212;2022-07-29T07:43:40;98149.28;;;39.39;nan
19259;BME280;9763;48.780;9.212;2022-07-29T07:47:04;98151.63;;;39.26;nan
19259;BME280;9763;48.780;9.212;2022-07-29T07:50:35;98157.28;;;39.78;nan
19259;BME280;9763;48.780;9.212;2022-07-29T07:53:59;98158.75;;;40.45;nan
19259;BME280;9763;48.780;9.212;2022-07-29T07:57:24;98152.56;;;40.99;nan
19259;BME280;9763;48.780;9.212;2022-07-29T08:00:48;98145.75;;;41.11;nan
19259;BME280;9763;48.780;9.212;2022-07-29T08:04:11;98154.22;;;41.14;nan
19259;BME280;9763;48.780;9.212;2022-07-29T08:07:37;98150.53;;;41.32;nan
19259;BME280;9763;48.780;9.212;2022-07-29T08:11:01;98158.38;;;41.89;nan
19259;BME280;9763;48.780;9.212;2022-07-29T08:14:32;98162.03;;;42.65;nan
19259;BME280;9763;48.780;9.212;2022-07-29T08:17:56;98158.41;;;43.57;nan
19259;BME280;9763;48.780;9.212;2022-07-29T08:21:19;98146.47;;;44.13;nan
19259;BME280;9763;48.780;9.212;2022-07-29T08:24:44;98149.00;;;44.62;nan
19259;BME280;9763;48.780;9.212;2022-07-29T08:28:16;98151.97;;;44.95;nan
19259;BME280;9763;48.780;9.212;2022-07-29T08:31:40;98159.03;;;44.75;nan
19259;BME280;9763;48.780;9.212;2022-07-29T08:35:04;98156.94;;;44.63;nan
19259;BME280;9763;48.780;9.212;2022-07-29T08:38:28;98161.06;;;44.95;nan
19259;BME280;9763;48.780;9.212;2022-07-29T08:41:53;98151.88;;;45.20;nan
19259;BME280;9763;48.780;9.212;2022-07-29T08:45:20;98162.50;;;45.01;nan
19259;BME280;9763;48.780;9.212;2022-07-29T08:48:47;98159.16;;;44.87;nan
19259;BME280;9763;48.780;9.212;2022-07-29T08:52:12;98156.28;;;44.66;nan
19259;BME280;9763;48.780;9.212;2022-07-29T08:55:39;98150.50;;;44.97;nan
19259;BME280;9763;48.780;9.212;2022-07-29T08:59:08;98151.50;;;45.31;nan
19259;BME280;9763;48.780;9.212;2022-07-29T09:02:39;98145.75;;;45.95;nan
19259;BME280;9763;48.780;9.212;2022-07-29T09:06:08;98149.56;;;46.56;nan
19259;BME280;9763;48.780;9.212;2022-07-29T09:09:33;98160.16;;;47.11;nan
19259;BME280;9763;48.780;9.212;2022-07-29T09:12:57;98154.06;;;47.42;nan
19259;BME280;9763;48.780;9.212;2022-07-29T09:16:22;98155.22;;;47.53;nan
19259;BME280;9763;48.780;9.212;2022-07-29T09:20:10;98150.84;;;47.40;nan
19259;BME280;9763;48.780;9.212;2022-07-29T09:23:33;98148.16;;;47.56;nan
19259;BME280;9763;48.780;9.212;2022-07-29T09:26:58;98134.00;;;47.33;nan
19259;BME280;9763;48.780;9.212;2022-07-29T09:30:21;98149.91;;;47.48;nan
19259;BME280;9763;48.780;9.212;2022-07-29T09:33:58;98141.91;;;47.59;nan
19259;BME280;9763;48.780;9.212;2022-07-29T09:37:28;98145.38;;;47.68;nan
19259;BME280;9763;48.780;9.212;2022-07-29T09:41:04;98139.00;;;47.92;nan
19259;BME280;9763;48.780;9.212;2022-07-29T09:44:43;98130.28;;;48.06;nan
19259;BME280;9763;48.780;9.212;2022-07-29T09:48:14;98129.91;;;48.07;nan
19259;BME280;9763;48.780;9.212;2022-07-29T09:51:40;98123.03;;;48.01;nan
19259;BME280;9763;48.780;9.212;2022-07-29T09:55:05;98120.34;;;48.32;nan
19259;BME280;9763;48.780;9.212;2022-07-29T09:58:29;98127.84;;;48.60;nan
19259;BME280;9763;48.780;9.212;2022-07-29T10:01:56;98120.69;;;48.75;nan
19259;BME280;9763;48.780;9.212;2022-07-29T10:05:23;98120.69;;;48.15;nan
19259;BME280;9763;48.780;9.212;2022-07-29T10:08:48;98111.97;;;47.00;nan
19259;BME280;9763;48.780;9.212;2022-07-29T10:12:13;98124.25;;;45.79;nan
19259;BME280;9763;48.780;9.212;2022-07-29T10:15:39;98127.94;;;44.57;nan
19259;BME280;9763;48.780;9.212;2022-07-29T10:19:05;98126.22;;;43.58;nan
19259;BME280;9763;48.780;9.212;2022-07-29T10:22:29;98118.53;;;42.89;nan
19259;BME280;9763;48.780;9.212;2022-07-29T10:26:16;98117.94;;;42.39;nan
19259;BME280;9763;48.780;9.212;2022-07-29T10:29:41;98112.09;;;41.74;nan
19259;BME280;9763;48.780;9.212;2022-07-29T10:33:38;98111.16;;;40.87;nan
19259;BME280;9763;48.780;9.212;2022-07-29T10:37:14;98116.19;;;40.02;nan
19259;BME280;9763;48.780;9.212;2022-07-29T10:40:54;98118.75;;;39.13;nan
19259;BME280;9763;48.780;9.212;2022-07-29T10:44:43;98122.09;;;38.23;nan
19259;BME280;9763;48.780;9.212;2022-07-29T10:48:09;98133.19;;;37.48;nan
19259;BME280;9763;48.780;9.212;2022-07-29T10:52:00;98135.88;;;36.49;nan
19259;BME280;9763;48.780;9.212;2022-07-29T10:55:35;98143.13;;;35.72;nan
19259;BME280;9763;48.780;9.212;2022-07-29T10:59:23;98144.78;;;34.68;nan
19259;BME280;9763;48.780;9.212;2022-07-29T11:02:55;98178.94;;;33.35;nan
19259;BME280;9763;48.780;9.212;2022-07-29T11:06:20;98181.84;;;32.23;nan
19259;BME280;9763;48.780;9.212;2022-07-29T11:10:23;98197.06;;;30.97;nan
19259;BME280;9763;48.780;9.212;2022-07-29T11:13:53;98209.19;;;29.52;nan
19259;BME280;9763;48.780;9.212;2022-07-29T11:17:18;98214.81;;;28.01;nan
19259;BME280;9763;48.780;9.212;2022-07-29T11:20:45;98207.94;;;27.16;nan
19259;BME280;9763;48.780;9.212;2022-07-29T11:24:15;98205.09;;;26.65;nan
19259;BME280;9763;48.780;9.212;2022-07-29T11:27:52;98197.41;;;26.22;nan
19259;BME280;9763;48.780;9.212;2022-07-29T11:31:33;98200.25;;;25.88;nan
19259;BME280;9763;48.780;9.212;2022-07-29T11:35:15;98218.13;;;25.33;nan
19259;BME280;9763;48.780;9.212;2022-07-29T11:39:27;98217.09;;;24.71;nan
19259;BME280;9763;48.780;9.212;2022-07-29T11:42:59;98214.22;;;24.24;nan
19259;BME280;9763;48.780;9.212;2022-07-29T11:46:45;98208.97;;;23.94;nan
19259;BME280;9763;48.780;9.212;2022-07-29T11:50:13;98209.75;;;23.88;nan
19259;BME280;9763;48.780;9.212;2022-07-29T11:53:39;98204.75;;;24.00;nan
19259;BME280;9763;48.780;9.212;2022-07-29T11:57:07;98202.06;;;24.21;nan
19259;BME280;9763;48.780;9.212;2022-07-29T12:00:34;98204.09;;;24.40;nan
19259;BME280;9763;48.780;9.212;2022-07-29T12:04:04;98202.19;;;24.56;nan
19259;BME280;9763;48.780;9.212;2022-07-29T12:07:29;98203.69;;;24.65;nan
19259;BME280;9763;48.780;9.212;2022-07-29T12:10:56;98209.09;;;24.71;nan
19259;BME280;9763;48.780;9.212;2022-07-29T12:14:29;98205.81;;;24.76;nan
19259;BME280;9763;48.780;9.212;2022-07-29T12:17:53;98197.50;;;24.92;nan
19259;BME280;9763;48.780;9.212;2022-07-29T12:21:16;98196.44;;;25.15;nan
19259;BME280;9763;48.780;9.212;2022-07-29T12:24:46;98203.31;;;25.37;nan
19259;BME280;9763;48.780;9.212;2022-07-29T12:28:12;98194.81;;;25.61;nan
19259;BME280;9763;48.780;9.212;2022-07-29T12:31:54;98184.44;;;25.99;nan
19259;BME280;9763;48.780;9.212;2022-07-29T12:35:20;98190.28;;;26.29;nan
19259;BME280;9763;48.780;9.212;2022-07-29T12:38:45;98183.06;;;26.43;nan
19259;BME280;9763;48.780;9.212;2022-07-29T12:42:12;98176.06;;;26.48;nan
19259;BME280;9763;48.780;9.212;2022-07-29T12:45:43;98177.72;;;26.49;nan
19259;BME280;9763;48.780;9.212;2022-07-29T12:49:09;98185.31;;;26.46;nan
19259;BME280;9763;48.780;9.212;2022-07-29T12:52:36;98182.03;;;26.37;nan
19259;BME280;9763;48.780;9.212;2022-07-29T12:56:00;98189.88;;;26.32;nan
19259;BME280;9763;48.780;9.212;2022-07-29T12:59:32;98199.91;;;26.24;nan
19259;BME280;9763;48.780;9.212;2022-07-29T13:03:00;98205.06;;;26.18;nan
19259;BME280;9763;48.780;9.212;2022-07-29T13:06:34;98198.06;;;26.17;nan
19259;BME280;9763;48.780;9.212;2022-07-29T13:10:13;98193.69;;;26.10;nan
19259;BME280;9763;48.780;9.212;2022-07-29T13:13:50;98204.41;;;26.03;nan
19259;BME280;9763;48.780;9.212;2022-07-29T13:17:39;98215.06;;;25.97;nan
19259;BME280;9763;48.780;9.212;2022-07-29T13:21:14;98230.06;;;25.84;nan
19259;BME280;9763;48.780;9.212;2022-07-29T13:24:54;98226.13;;;25.67;nan
19259;BME280;9763;48.780;9.212;2022-07-29T13:28:18;98226.81;;;25.48;nan
19259;BME280;9763;48.780;9.212;2022-07-29T13:31:44;98229.03;;;25.38;nan
19259;BME280;9763;48.780;9.212;2022-07-29T13:35:09;98236.75;;;25.20;nan
19259;BME280;9763;48.780;9.212;2022-07-29T13:38:33;98230.50;;;25.06;nan
19259;BME280;9763;48.780;9.212;2022-07-29T13:41:58;98223.56;;;24.84;nan
19259;BME280;9763;48.780;9.212;2022-07-29T13:45:23;98207.13;;;24.59;nan
19259;BME280;9763;48.780;9.212;2022-07-29T13:48:50;98188.72;;;24.42;nan
19259;BME280;9763;48.780;9.212;2022-07-29T13:52:15;98184.41;;;24.41;nan
19259;BME280;9763;48.780;9.212;2022-07-29T13:55:38;98186.81;;;24.58;nan
19259;BME280;9763;48.780;9.212;2022-07-29T13:59:04;98189.84;;;24.83;nan
19259;BME280;9763;48.780;9.212;2022-07-29T14:02:27;98180.41;;;25.15;nan
19259;BME280;9763;48.780;9.212;2022-07-29T14:05:51;98184.03;;;25.48;nan
19259;BME280;9763;48.780;9.212;2022-07-29T14:09:15;98186.06;;;25.87;nan
19259;BME280;9763;48.780;9.212;2022-07-29T14:12:39;98178.31;;;26.18;nan
19259;BME280;9763;48.780;9.212;2022-07-29T14:16:05;98170.28;;;26.45;nan
19259;BME280;9763;48.780;9.212;2022-07-29T14:19:29;98179.56;;;26.62;nan
19259;BME280;9763;48.780;9.212;2022-07-29T14:22:54;98173.97;;;26.77;nan
19259;BME280;9763;48.780;9.212;2022-07-29T14:26:17;98172.09;;;26.90;nan
19259;BME280;9763;48.780;9.212;2022-07-29T14:29:45;98171.28;;;27.03;nan
19259;BME280;9763;48.780;9.212;2022-07-29T14:33:10;98178.66;;;27.14;nan
19259;BME280;9763;48.780;9.212;2022-07-29T14:36:33;98174.28;;;27.27;nan
19259;BME280;9763;48.780;9.212;2022-07-29T14:39:57;98172.81;;;27.31;nan
19259;BME280;9763;48.780;9.212;2022-07-29T14:43:24;98172.41;;;27.40;nan
19259;BME280;9763;48.780;9.212;2022-07-29T14:46:47;98178.94;;;27.44;nan
19259;BME280;9763;48.780;9.212;2022-07-29T14:50:13;98180.41;;;27.47;nan
19259;BME280;9763;48.780;9.212;2022-07-29T14:53:36;98190.09;;;27.48;nan
19259;BME280;9763;48.780;9.212;2022-07-29T14:57:00;98190.50;;;27.45;nan
19259;BME280;9763;48.780;9.212;2022-07-29T15:00:24;98186.38;;;27.42;nan
19259;BME280;9763;48.780;9.212;2022-07-29T15:03:48;98183.28;;;27.52;nan
19259;BME280;9763;48.780;9.212;2022-07-29T15:07:14;98184.50;;;27.63;nan
19259;BME280;9763;48.780;9.212;2022-07-29T15:10:37;98185.06;;;27.71;nan
19259;BME280;9763;48.780;9.212;2022-07-29T15:14:01;98191.44;;;27.77;nan
19259;BME280;9763;48.780;9.212;2022-07-29T15:17:25;98195.16;;;27.76;nan
19259;BME280;9763;48.780;9.212;2022-07-29T15:20:49;98184.22;;;27.77;nan
19259;BME280;9763;48.780;9.212;2022-07-29T15:24:14;98183.75;;;27.80;nan
19259;BME280;9763;48.780;9.212;2022-07-29T15:27:38;98180.25;;;27.80;nan
19259;BME280;9763;48.780;9.212;2022-07-29T15:31:10;98185.19;;;27.83;nan
19259;BME280;9763;48.780;9.212;2022-07-29T15:34:33;98189.75;;;27.82;nan
19259;BME280;9763;48.780;9.212;2022-07-29T15:37:57;98196.81;;;27.77;nan
19259;BME280;9763;48.780;9.212;2022-07-29T15:41:22;98193.09;;;27.71;nan
19259;BME280;9763;48.780;9.212;2022-07-29T15:44:45;98193.94;;;27.72;nan
19259;BME280;9763;48.780;9.212;2022-07-29T15:48:09;98189.81;;;27.69;nan
19259;BME280;9763;48.780;9.212;2022-07-29T15:51:39;98186.50;;;27.67;nan
19259;BME280;9763;48.780;9.212;2022-07-29T15:55:04;98184.03;;;27.72;nan
19259;BME280;9763;48.780;9.212;2022-07-29T15:58:29;98189.34;;;27.79;nan
19259;BME280;9763;48.780;9.212;2022-07-29T16:01:52;98188.28;;;27.86;nan
19259;BME280;9763;48.780;9.212;2022-07-29T16:05:16;98182.16;;;28.04;nan
19259;BME280;9763;48.780;9.212;2022-07-29T16:08:40;98186.84;;;28.22;nan
19259;BME280;9763;48.780;9.212;2022-07-29T16:12:06;98191.06;;;28.36;nan
19259;BME280;9763;48.780;9.212;2022-07-29T16:15:38;98185.59;;;28.49;nan
19259;BME280;9763;48.780;9.212;2022-07-29T16:19:02;98181.81;;;28.57;nan
19259;BME280;9763;48.780;9.212;2022-07-29T16:22:25;98186.06;;;28.64;nan
19259;BME280;9763;48.780;9.212;2022-07-29T16:25:50;98187.28;;;28.68;nan
19259;BME280;9763;48.780;9.212;2022-07-29T16:29:22;98183.13;;;28.73;nan
19259;BME280;9763;48.780;9.212;2022-07-29T16:32:47;98190.31;;;28.79;nan
19259;BME280;9763;48.780;9.212;2022-07-29T16:36:10;98190.47;;;28.84;nan
19259;BME280;9763;48.780;9.212;2022-07-29T16:39:39;98191.50;;;28.83;nan
19259;BME280;9763;48.780;9.212;2022-07-29T16:43:03;98191.72;;;28.81;nan
19259;BME280;9763;48.780;9.212;2022-07-29T16:46:27;98195.25;;;28.75;nan
19259;BME280;9763;48.780;9.212;2022-07-29T16:49:52;98192.44;;;28.70;nan
19259;BME280;9763;48.780;9.212;2022-07-29T16:53:16;98190.59;;;28.64;nan
19259;BME280;9763;48.780;9.212;2022-07-29T16:56:40;98191.72;;;28.56;nan
19259;BME280;9763;48.780;9.212;2022-07-29T17:00:05;98197.97;;;28.50;nan
19259;BME280;9763;48.780;9.212;2022-07-29T17:03:29;98199.66;;;28.45;nan
19259;BME280;9763;48.780;9.212;2022-07-29T17:06:54;98193.91;;;28.41;nan
19259;BME280;9763;48.780;9.212;2022-07-29T17:10:21;98190.84;;;28.38;nan
19259;BME280;9763;48.780;9.212;2022-07-29T17:13:49;98194.59;;;28.37;nan
19259;BME280;9763;48.780;9.212;2022-07-29T17:17:12;98196.66;;;28.35;nan
19259;BME280;9763;48.780;9.212;2022-07-29T17:20:38;98201.41;;;28.33;nan
19259;BME280;9763;48.780;9.212;2022-07-29T17:24:03;98207.22;;;28.29;nan
19259;BME280;9763;48.780;9.212;2022-07-29T17:27:27;98205.19;;;28.25;nan
19259;BME280;9763;48.780;9.212;2022-07-29T17:30:51;98208.09;;;28.23;nan
19259;BME280;9763;48.780;9.212;2022-07-29T17:34:14;98207.28;;;28.23;nan
19259;BME280;9763;48.780;9.212;2022-07-29T17:37:38;98213.47;;;28.23;nan
19259;BME280;9763;48.780;9.212;2022-07-29T17:41:03;98211.41;;;28.25;nan
19259;BME280;9763;48.780;9.212;2022-07-29T17:44:31;98213.63;;;28.28;nan
19259;BME280;9763;48.780;9.212;2022-07-29T17:47:58;98202.66;;;28.30;nan
19259;BME280;9763;48.780;9.212;2022-07-29T17:51:22;98214.22;;;28.30;nan
19259;BME280;9763;48.780;9.212;2022-07-29T17:54:46;98218.16;;;28.28;nan
19259;BME280;9763;48.780;9.212;2022-07-29T17:58:11;98210.78;;;28.23;nan
19259;BME280;9763;48.780;9.212;2022-07-29T18:01:35;98215.97;;;28.18;nan
19259;BME280;9763;48.780;9.212;2022-07-29T18:04:59;98219.50;;;28.12;nan
19259;BME280;9763;48.780;9.212;2022-07-29T18:08:23;98226.75;;;28.05;nan
19259;BME280;9763;48.780;9.212;2022-07-29T18:11:47;98222.47;;;27.98;nan
19259;BME280;9763;48.780;9.212;2022-07-29T18:15:12;98233.84;;;27.93;nan
19259;BME280;9763;48.780;9.212;2022-07-29T18:18:36;98229.13;;;27.88;nan
19259;BME280;9763;48.780;9.212;2022-07-29T18:21:59;98226.88;;;27.85;nan
19259;BME280;9763;48.780;9.212;2022-07-29T18:25:27;98225.66;;;27.81;nan
19259;BME280;9763;48.780;9.212;2022-07-29T18:28:51;98226.53;;;27.75;nan
19259;BME280;9763;48.780;9.212;2022-07-29T18:32:16;98231.91;;;27.69;nan
19259;BME280;9763;48.780;9.212;2022-07-29T18:35:52;98228.44;;;27.62;nan
19259;BME280;9763;48.780;9.212;2022-07-29T18:39:32;98231.53;;;27.52;nan
19259;BME280;9763;48.780;9.212;2022-07-29T18:42:56;98225.56;;;27.43;nan
19259;BME280;9763;48.780;9.212;2022-07-29T18:46:19;98226.22;;;27.32;nan
19259;BME280;9763;48.780;9.212;2022-07-29T18:49:45;98221.31;;;27.22;nan
19259;BME280;9763;48.780;9.212;2022-07-29T18:53:09;98224.22;;;27.14;nan
19259;BME280;9763;48.780;9.212;2022-07-29T18:56:33;98231.06;;;27.04;nan
19259;BME280;9763;48.780;9.212;2022-07-29T18:59:56;98229.81;;;26.93;nan
19259;BME280;9763;48.780;9.212;2022-07-29T19:03:20;98236.59;;;26.82;nan